sensor_id;sensor_type;location;lat;lon;timestamp;pressure;altitude;pressure_sealevel;temperature;humidity
75942;BME280;64622;46.220;19.878;2023-01-08T00:01:14;100917.00;;;-0.45;100.00
75942;BME280;64622;46.220;19.878;2023-01-08T00:03:41;100905.69;;;-0.47;100.00
75942;BME280;64622;46.220;19.878;2023-01-08T00:06:11;100907.16;;;-0.42;100.00
75942;BME280;64622;46.220;19.878;2023-01-08T00:08:38;100907.63;;;-0.34;100.00
75942;BME280;64622;46.220;19.878;2023-01-08T00:11:05;100899.34;;;-0.26;100.00
75942;BME280;64622;46.220;19.878;2023-01-08T00:13:32;100906.34;;;-0.25;100.00
75942;BME280;64622;46.220;19.878;2023-01-08T00:16:06;100903.53;;;-0.39;100.00
75942;BME280;64622;46.220;19.878;2023-01-08T00:18:33;100904.91;;;-0.49;100.00
75942;BME280;64622;46.220;19.878;2023-01-08T00:21:00;100902.41;;;-0.52;100.00
75942;BME280;64622;46.220;19.878;2023-01-08T00:23:27;100894.06;;;-0.60;100.00
75942;BME280;64622;46.220;19.878;2023-01-08T00:25:54;100905.84;;;-0.50;100.00
75942;BME280;64622;46.220;19.878;2023-01-08T00:28:21;100894.72;;;-0.38;100.00
75942;BME280;64622;46.220;19.878;2023-01-08T00:30:48;100899.59;;;-0.31;100.00
75942;BME280;64622;46.220;19.878;2023-01-08T00:33:15;100905.41;;;-0.24;100.00
75942;BME280;64622;46.220;19.878;2023-01-08T00:35:42;100908.88;;;-0.24;100.00
75942;BME280;64622;46.220;19.878;2023-01-08T00:38:08;100910.66;;;-0.24;100.00
75942;BME280;64622;46.220;19.878;2023-01-08T00:40:36;100907.72;;;-0.35;100.00
75942;BME280;64622;46.220;19.878;2023-01-08T00:43:04;100898.28;;;-0.39;100.00
75942;BME280;64622;46.220;19.878;2023-01-08T00:45:30;100916.62;;;-0.37;100.00
75942;BME280;64622;46.220;19.878;2023-01-08T00:47:58;100914.09;;;-0.57;100.00
75942;BME280;64622;46.220;19.878;2023-01-08T00:50:24;100911.13;;;-0.69;100.00
75942;BME280;64622;46.220;19.878;2023-01-08T00:52:51;100915.22;;;-0.80;100.00
75942;BME280;64622;46.220;19.878;2023-01-08T00:55:18;100926.62;;;-0.62;100.00
75942;BME280;64622;46.220;19.878;2023-01-08T00:57:45;100919.25;;;-0.56;100.00
75942;BME280;64622;46.220;19.878;2023-01-08T01:00:14;100908.06;;;-0.60;100.00
75942;BME280;64622;46.220;19.878;2023-01-08T01:02:42;100918.87;;;-0.49;100.00
75942;BME280;64622;46.220;19.878;2023-01-08T01:05:10;100917.19;;;-0.50;100.00
75942;BME280;64622;46.220;19.878;2023-01-08T01:07:41;100919.06;;;-0.52;100.00
75942;BME280;64622;46.220;19.878;2023-01-08T01:10:10;100900.78;;;-0.55;100.00
75942;BME280;64622;46.220;19.878;2023-01-08T01:12:37;100906.69;;;-0.50;100.00
75942;BME280;64622;46.220;19.878;2023-01-08T01:15:06;100899.09;;;-0.56;100.00
75942;BME280;64622;46.220;19.878;2023-01-08T01:17:37;100897.34;;;-0.55;100.00
75942;BME280;64622;46.220;19.878;2023-01-08T01:20:06;100908.91;;;-0.59;100.00
75942;BME280;64622;46.220;19.878;2023-01-08T01:22:42;100885.94;;;-0.73;100.00
75942;BME280;64622;46.220;19.878;2023-01-08T01:25:09;100901.34;;;-0.65;100.00
75942;BME280;64622;46.220;19.878;2023-01-08T01:27:35;100908.13;;;-0.61;100.00
75942;BME280;64622;46.220;19.878;2023-01-08T01:30:03;100912.75;;;-0.66;100.00
75942;BME280;64622;46.220;19.878;2023-01-08T01:32:30;100912.84;;;-0.68;100.00
75942;BME280;64622;46.220;19.878;2023-01-08T01:34:56;100910.69;;;-0.60;100.00
75942;BME280;64622;46.220;19.878;2023-01-08T01:37:23;100900.03;;;-0.57;100.00
75942;BME280;64622;46.220;19.878;2023-01-08T01:39:50;100900.72;;;-0.53;100.00
75942;BME280;64622;46.220;19.878;2023-01-08T01:42:18;100893.47;;;-0.48;100.00
75942;BME280;64622;46.220;19.878;2023-01-08T01:45:24;100890.16;;;-0.52;100.00
75942;BME280;64622;46.220;19.878;2023-01-08T01:47:59;100895.53;;;-0.55;100.00
75942;BME280;64622;46.220;19.878;2023-01-08T01:50:32;100901.66;;;-0.54;100.00
75942;BME280;64622;46.220;19.878;2023-01-08T01:53:02;100902.03;;;-0.62;100.00
75942;BME280;64622;46.220;19.878;2023-01-08T01:55:31;100887.94;;;-0.77;100.00
75942;BME280;64622;46.220;19.878;2023-01-08T01:58:07;100891.69;;;-0.83;100.00
75942;BME280;64622;46.220;19.878;2023-01-08T02:00:37;100894.34;;;-1.02;100.00
75942;BME280;64622;46.220;19.878;2023-01-08T02:03:04;100898.72;;;-1.02;100.00
75942;BME280;64622;46.220;19.878;2023-01-08T02:08:45;100892.66;;;-1.02;100.00
75942;BME280;64622;46.220;19.878;2023-01-08T02:11:22;100887.09;;;-0.97;100.00
75942;BME280;64622;46.220;19.878;2023-01-08T02:13:57;100883.88;;;-0.85;100.00
75942;BME280;64622;46.220;19.878;2023-01-08T02:16:29;100870.44;;;-0.79;100.00
75942;BME280;64622;46.220;19.878;2023-01-08T02:19:29;100881.75;;;-0.77;100.00
75942;BME280;64622;46.220;19.878;2023-01-08T02:27:20;100878.34;;;-0.97;100.00
75942;BME280;64622;46.220;19.878;2023-01-08T02:29:50;100870.44;;;-1.14;100.00
75942;BME280;64622;46.220;19.878;2023-01-08T02:32:25;100871.91;;;-1.27;100.00
75942;BME280;64622;46.220;19.878;2023-01-08T02:34:53;100888.53;;;-1.27;100.00
75942;BME280;64622;46.220;19.878;2023-01-08T02:37:20;100866.66;;;-1.46;100.00
75942;BME280;64622;46.220;19.878;2023-01-08T02:45:27;100880.66;;;-1.27;100.00
75942;BME280;64622;46.220;19.878;2023-01-08T02:48:16;100862.84;;;-1.20;100.00
75942;BME280;64622;46.220;19.878;2023-01-08T02:51:11;100886.94;;;-1.12;100.00
75942;BME280;64622;46.220;19.878;2023-01-08T02:53:45;100875.25;;;-1.05;100.00
75942;BME280;64622;46.220;19.878;2023-01-08T02:56:22;100877.09;;;-1.07;100.00
75942;BME280;64622;46.220;19.878;2023-01-08T02:58:51;100874.69;;;-1.12;100.00
75942;BME280;64622;46.220;19.878;2023-01-08T03:01:20;100871.13;;;-1.11;100.00
75942;BME280;64622;46.220;19.878;2023-01-08T03:03:51;100857.87;;;-1.08;100.00
75942;BME280;64622;46.220;19.878;2023-01-08T03:06:20;100853.16;;;-1.01;100.00
75942;BME280;64622;46.220;19.878;2023-01-08T03:08:49;100855.13;;;-1.06;100.00
75942;BME280;64622;46.220;19.878;2023-01-08T03:11:19;100851.38;;;-1.01;100.00
75942;BME280;64622;46.220;19.878;2023-01-08T03:16:32;100859.25;;;-1.01;100.00
75942;BME280;64622;46.220;19.878;2023-01-08T03:19:12;100859.41;;;-1.04;100.00
75942;BME280;64622;46.220;19.878;2023-01-08T03:21:40;100839.38;;;-1.06;100.00
75942;BME280;64622;46.220;19.878;2023-01-08T03:24:11;100855.66;;;-0.98;100.00
75942;BME280;64622;46.220;19.878;2023-01-08T03:26:39;100852.16;;;-0.99;100.00
75942;BME280;64622;46.220;19.878;2023-01-08T03:29:10;100863.22;;;-0.92;100.00
75942;BME280;64622;46.220;19.878;2023-01-08T03:31:39;100867.66;;;-0.93;100.00
75942;BME280;64622;46.220;19.878;2023-01-08T03:34:07;100868.72;;;-0.97;100.00
75942;BME280;64622;46.220;19.878;2023-01-08T03:36:35;100863.22;;;-0.92;100.00
75942;BME280;64622;46.220;19.878;2023-01-08T03:39:23;100857.41;;;-0.99;100.00
75942;BME280;64622;46.220;19.878;2023-01-08T03:41:54;100856.63;;;-1.01;100.00
75942;BME280;64622;46.220;19.878;2023-01-08T03:44:23;100858.78;;;-0.90;100.00
75942;BME280;64622;46.220;19.878;2023-01-08T03:46:52;100845.00;;;-0.95;100.00
75942;BME280;64622;46.220;19.878;2023-01-08T03:49:21;100853.59;;;-0.92;100.00
75942;BME280;64622;46.220;19.878;2023-01-08T03:51:50;100849.16;;;-0.91;100.00
75942;BME280;64622;46.220;19.878;2023-01-08T03:54:19;100841.44;;;-0.94;100.00
75942;BME280;64622;46.220;19.878;2023-01-08T03:56:46;100846.00;;;-0.98;100.00
75942;BME280;64622;46.220;19.878;2023-01-08T03:59:13;100850.72;;;-0.87;100.00
75942;BME280;64622;46.220;19.878;2023-01-08T04:01:41;100848.41;;;-0.93;100.00
75942;BME280;64622;46.220;19.878;2023-01-08T04:04:09;100854.78;;;-0.99;100.00
75942;BME280;64622;46.220;19.878;2023-01-08T04:06:36;100856.50;;;-0.98;100.00
75942;BME280;64622;46.220;19.878;2023-01-08T04:09:03;100857.56;;;-1.02;100.00
75942;BME280;64622;46.220;19.878;2023-01-08T04:11:30;100847.56;;;-1.12;100.00
75942;BME280;64622;46.220;19.878;2023-01-08T04:13:57;100850.25;;;-1.14;100.00
75942;BME280;64622;46.220;19.878;2023-01-08T04:16:23;100859.69;;;-1.10;100.00
75942;BME280;64622;46.220;19.878;2023-01-08T04:18:50;100862.97;;;-1.05;100.00
75942;BME280;64622;46.220;19.878;2023-01-08T04:21:17;100862.66;;;-0.99;100.00
75942;BME280;64622;46.220;19.878;2023-01-08T04:23:44;100859.91;;;-0.96;100.00
75942;BME280;64622;46.220;19.878;2023-01-08T04:26:11;100858.91;;;-0.93;100.00
75942;BME280;64622;46.220;19.878;2023-01-08T04:28:37;100870.03;;;-0.88;100.00
75942;BME280;64622;46.220;19.878;2023-01-08T04:31:06;100864.66;;;-0.85;100.00
75942;BME280;64622;46.220;19.878;2023-01-08T04:33:33;100853.00;;;-0.98;100.00
75942;BME280;64622;46.220;19.878;2023-01-08T04:36:01;100871.03;;;-0.91;100.00
75942;BME280;64622;46.220;19.878;2023-01-08T04:38:27;100862.41;;;-0.93;100.00
75942;BME280;64622;46.220;19.878;2023-01-08T04:40:58;100867.13;;;-0.82;100.00
75942;BME280;64622;46.220;19.878;2023-01-08T04:43:25;100864.72;;;-0.87;100.00
75942;BME280;64622;46.220;19.878;2023-01-08T04:45:52;100865.28;;;-0.99;100.00
75942;BME280;64622;46.220;19.878;2023-01-08T04:48:22;100852.50;;;-1.06;100.00
75942;BME280;64622;46.220;19.878;2023-01-08T04:50:49;100849.69;;;-1.02;100.00
75942;BME280;64622;46.220;19.878;2023-01-08T04:53:16;100865.09;;;-0.94;100.00
75942;BME280;64622;46.220;19.878;2023-01-08T04:55:43;100852.31;;;-1.02;100.00
75942;BME280;64622;46.220;19.878;2023-01-08T04:58:09;100856.41;;;-0.96;100.00
75942;BME280;64622;46.220;19.878;2023-01-08T05:00:37;100868.66;;;-0.95;100.00
75942;BME280;64622;46.220;19.878;2023-01-08T05:03:05;100855.88;;;-1.02;100.00
75942;BME280;64622;46.220;19.878;2023-01-08T05:05:32;100865.22;;;-0.97;100.00
75942;BME280;64622;46.220;19.878;2023-01-08T05:07:59;100859.12;;;-0.98;100.00
75942;BME280;64622;46.220;19.878;2023-01-08T05:10:26;100842.75;;;-1.02;100.00
75942;BME280;64622;46.220;19.878;2023-01-08T05:12:58;100843.91;;;-0.91;100.00
75942;BME280;64622;46.220;19.878;2023-01-08T05:15:24;100838.19;;;-0.99;100.00
75942;BME280;64622;46.220;19.878;2023-01-08T05:18:03;100843.63;;;-1.04;100.00
75942;BME280;64622;46.220;19.878;2023-01-08T05:20:31;100858.41;;;-1.01;100.00
75942;BME280;64622;46.220;19.878;2023-01-08T05:22:58;100858.22;;;-0.97;100.00
75942;BME280;64622;46.220;19.878;2023-01-08T05:25:25;100861.75;;;-0.98;100.00
75942;BME280;64622;46.220;19.878;2023-01-08T05:27:52;100861.13;;;-1.02;100.00
75942;BME280;64622;46.220;19.878;2023-01-08T05:30:19;100865.66;;;-1.06;100.00
75942;BME280;64622;46.220;19.878;2023-01-08T05:32:45;100861.38;;;-1.09;100.00
75942;BME280;64622;46.220;19.878;2023-01-08T05:35:12;100865.75;;;-1.08;100.00
75942;BME280;64622;46.220;19.878;2023-01-08T05:37:39;100868.56;;;-1.12;100.00
75942;BME280;64622;46.220;19.878;2023-01-08T05:40:06;100870.06;;;-1.07;100.00
75942;BME280;64622;46.220;19.878;2023-01-08T05:42:34;100850.63;;;-1.21;100.00
75942;BME280;64622;46.220;19.878;2023-01-08T05:45:03;100861.97;;;-1.21;100.00
75942;BME280;64622;46.220;19.878;2023-01-08T05:47:31;100862.84;;;-1.20;100.00
75942;BME280;64622;46.220;19.878;2023-01-08T05:49:58;100868.88;;;-1.18;100.00
75942;BME280;64622;46.220;19.878;2023-01-08T05:52:25;100859.47;;;-1.24;100.00
75942;BME280;64622;46.220;19.878;2023-01-08T05:54:52;100865.38;;;-1.19;100.00
75942;BME280;64622;46.220;19.878;2023-01-08T05:57:18;100863.25;;;-1.11;100.00
75942;BME280;64622;46.220;19.878;2023-01-08T05:59:45;100853.34;;;-1.23;100.00
75942;BME280;64622;46.220;19.878;2023-01-08T06:02:12;100857.50;;;-1.19;100.00
75942;BME280;64622;46.220;19.878;2023-01-08T06:04:38;100855.97;;;-1.23;100.00
75942;BME280;64622;46.220;19.878;2023-01-08T06:07:05;100850.84;;;-1.26;100.00
75942;BME280;64622;46.220;19.878;2023-01-08T06:09:31;100854.75;;;-1.34;100.00
75942;BME280;64622;46.220;19.878;2023-01-08T06:11:58;100857.50;;;-1.37;100.00
75942;BME280;64622;46.220;19.878;2023-01-08T06:14:25;100856.88;;;-1.42;100.00
75942;BME280;64622;46.220;19.878;2023-01-08T06:16:51;100858.56;;;-1.41;100.00
75942;BME280;64622;46.220;19.878;2023-01-08T06:19:18;100849.06;;;-1.44;100.00
75942;BME280;64622;46.220;19.878;2023-01-08T06:21:45;100841.53;;;-1.51;100.00
75942;BME280;64622;46.220;19.878;2023-01-08T06:24:11;100846.13;;;-1.56;100.00
75942;BME280;64622;46.220;19.878;2023-01-08T06:26:38;100835.16;;;-1.64;100.00
75942;BME280;64622;46.220;19.878;2023-01-08T06:29:05;100856.84;;;-1.61;100.00
75942;BME280;64622;46.220;19.878;2023-01-08T06:31:31;100848.91;;;-1.59;100.00
75942;BME280;64622;46.220;19.878;2023-01-08T06:33:58;100857.44;;;-1.54;100.00
75942;BME280;64622;46.220;19.878;2023-01-08T06:36:25;100855.94;;;-1.41;100.00
75942;BME280;64622;46.220;19.878;2023-01-08T06:38:51;100841.47;;;-1.50;100.00
75942;BME280;64622;46.220;19.878;2023-01-08T06:41:20;100862.28;;;-1.45;100.00
75942;BME280;64622;46.220;19.878;2023-01-08T06:43:47;100858.22;;;-1.52;100.00
75942;BME280;64622;46.220;19.878;2023-01-08T06:46:13;100853.53;;;-1.46;100.00
75942;BME280;64622;46.220;19.878;2023-01-08T06:48:40;100852.47;;;-1.42;100.00
75942;BME280;64622;46.220;19.878;2023-01-08T06:51:07;100854.88;;;-1.37;100.00
75942;BME280;64622;46.220;19.878;2023-01-08T06:53:33;100849.78;;;-1.40;100.00
75942;BME280;64622;46.220;19.878;2023-01-08T06:56:02;100865.09;;;-1.31;100.00
75942;BME280;64622;46.220;19.878;2023-01-08T06:58:29;100860.56;;;-1.27;100.00
75942;BME280;64622;46.220;19.878;2023-01-08T07:00:55;100869.91;;;-1.22;100.00
75942;BME280;64622;46.220;19.878;2023-01-08T07:03:24;100867.28;;;-1.22;100.00
75942;BME280;64622;46.220;19.878;2023-01-08T07:05:51;100877.94;;;-1.07;100.00
75942;BME280;64622;46.220;19.878;2023-01-08T07:08:18;100866.38;;;-1.02;100.00
75942;BME280;64622;46.220;19.878;2023-01-08T07:10:45;100866.44;;;-1.04;100.00
75942;BME280;64622;46.220;19.878;2023-01-08T07:13:12;100866.75;;;-1.10;100.00
75942;BME280;64622;46.220;19.878;2023-01-08T07:15:40;100853.97;;;-1.17;100.00
75942;BME280;64622;46.220;19.878;2023-01-08T07:18:09;100865.66;;;-1.06;100.00
75942;BME280;64622;46.220;19.878;2023-01-08T07:20:36;100870.78;;;-1.03;100.00
75942;BME280;64622;46.220;19.878;2023-01-08T07:23:05;100861.13;;;-1.02;100.00
75942;BME280;64622;46.220;19.878;2023-01-08T07:25:32;100859.50;;;-1.05;100.00
75942;BME280;64622;46.220;19.878;2023-01-08T07:27:59;100862.66;;;-0.99;100.00
75942;BME280;64622;46.220;19.878;2023-01-08T07:30:26;100864.56;;;-0.84;100.00
75942;BME280;64622;46.220;19.878;2023-01-08T07:32:57;100858.47;;;-0.84;100.00
75942;BME280;64622;46.220;19.878;2023-01-08T07:35:24;100863.78;;;-0.86;100.00
75942;BME280;64622;46.220;19.878;2023-01-08T07:37:51;100859.47;;;-0.87;100.00
75942;BME280;64622;46.220;19.878;2023-01-08T07:40:17;100852.66;;;-0.91;100.00
75942;BME280;64622;46.220;19.878;2023-01-08T07:42:44;100867.97;;;-0.82;100.00
75942;BME280;64622;46.220;19.878;2023-01-08T07:45:11;100863.50;;;-0.80;100.00
75942;BME280;64622;46.220;19.878;2023-01-08T07:47:37;100851.41;;;-0.84;100.00
75942;BME280;64622;46.220;19.878;2023-01-08T07:50:04;100854.66;;;-0.79;100.00
75942;BME280;64622;46.220;19.878;2023-01-08T07:52:31;100863.13;;;-0.72;100.00
75942;BME280;64622;46.220;19.878;2023-01-08T07:54:57;100858.72;;;-0.72;100.00
75942;BME280;64622;46.220;19.878;2023-01-08T07:57:24;100863.53;;;-0.62;100.00
75942;BME280;64622;46.220;19.878;2023-01-08T07:59:50;100867.78;;;-0.60;100.00
75942;BME280;64622;46.220;19.878;2023-01-08T08:02:17;100858.66;;;-0.53;100.00
75942;BME280;64622;46.220;19.878;2023-01-08T08:04:44;100865.41;;;-0.47;100.00
75942;BME280;64622;46.220;19.878;2023-01-08T08:07:10;100864.25;;;-0.42;100.00
75942;BME280;64622;46.220;19.878;2023-01-08T08:09:37;100856.66;;;-0.31;100.00
75942;BME280;64622;46.220;19.878;2023-01-08T08:12:05;100856.59;;;-0.13;100.00
75942;BME280;64622;46.220;19.878;2023-01-08T08:14:31;100861.53;;;-0.07;100.00
75942;BME280;64622;46.220;19.878;2023-01-08T08:16:57;100843.75;;;-0.02;100.00
75942;BME280;64622;46.220;19.878;2023-01-08T08:19:25;100858.13;;;0.08;100.00
75942;BME280;64622;46.220;19.878;2023-01-08T08:21:52;100854.69;;;0.23;100.00
75942;BME280;64622;46.220;19.878;2023-01-08T08:24:18;100852.25;;;0.36;100.00
75942;BME280;64622;46.220;19.878;2023-01-08T08:26:45;100843.53;;;0.51;100.00
75942;BME280;64622;46.220;19.878;2023-01-08T08:29:12;100847.78;;;0.69;100.00
75942;BME280;64622;46.220;19.878;2023-01-08T08:31:38;100840.94;;;0.82;100.00
75942;BME280;64622;46.220;19.878;2023-01-08T08:34:05;100832.94;;;0.83;100.00
75942;BME280;64622;46.220;19.878;2023-01-08T08:36:33;100825.03;;;0.99;100.00
75942;BME280;64622;46.220;19.878;2023-01-08T08:39:00;100837.50;;;1.26;100.00
75942;BME280;64622;46.220;19.878;2023-01-08T08:41:28;100837.69;;;1.53;100.00
75942;BME280;64622;46.220;19.878;2023-01-08T08:43:54;100833.28;;;1.53;100.00
75942;BME280;64622;46.220;19.878;2023-01-08T08:46:21;100823.44;;;1.71;100.00
75942;BME280;64622;46.220;19.878;2023-01-08T08:48:47;100839.12;;;1.88;100.00
75942;BME280;64622;46.220;19.878;2023-01-08T08:51:14;100821.97;;;1.95;100.00
75942;BME280;64622;46.220;19.878;2023-01-08T08:53:41;100823.09;;;2.05;100.00
75942;BME280;64622;46.220;19.878;2023-01-08T08:56:07;100816.91;;;2.20;100.00
75942;BME280;64622;46.220;19.878;2023-01-08T08:58:34;100824.72;;;2.21;100.00
75942;BME280;64622;46.220;19.878;2023-01-08T09:01:02;100825.38;;;2.25;100.00
75942;BME280;64622;46.220;19.878;2023-01-08T09:03:29;100820.59;;;2.45;100.00
75942;BME280;64622;46.220;19.878;2023-01-08T09:05:56;100822.19;;;2.62;100.00
75942;BME280;64622;46.220;19.878;2023-01-08T09:08:23;100817.28;;;2.96;100.00
75942;BME280;64622;46.220;19.878;2023-01-08T09:10:49;100813.63;;;3.25;100.00
75942;BME280;64622;46.220;19.878;2023-01-08T09:13:16;100812.06;;;3.35;100.00
75942;BME280;64622;46.220;19.878;2023-01-08T09:15:42;100815.97;;;3.69;100.00
75942;BME280;64622;46.220;19.878;2023-01-08T09:18:10;100810.63;;;4.20;100.00
75942;BME280;64622;46.220;19.878;2023-01-08T09:20:36;100801.69;;;4.46;100.00
75942;BME280;64622;46.220;19.878;2023-01-08T09:23:03;100812.38;;;4.93;100.00
75942;BME280;64622;46.220;19.878;2023-01-08T09:25:30;100803.22;;;5.33;100.00
75942;BME280;64622;46.220;19.878;2023-01-08T09:28:05;100781.34;;;5.53;100.00
75942;BME280;64622;46.220;19.878;2023-01-08T09:30:33;100790.66;;;5.82;100.00
75942;BME280;64622;46.220;19.878;2023-01-08T09:33:00;100779.72;;;6.09;99.33
75942;BME280;64622;46.220;19.878;2023-01-08T09:35:27;100776.59;;;6.48;97.53
75942;BME280;64622;46.220;19.878;2023-01-08T09:37:54;100772.84;;;6.39;98.75
75942;BME280;64622;46.220;19.878;2023-01-08T09:40:24;100770.78;;;6.54;97.89
75942;BME280;64622;46.220;19.878;2023-01-08T09:42:57;100767.28;;;6.76;97.46
75942;BME280;64622;46.220;19.878;2023-01-08T09:45:29;100756.97;;;6.82;97.05
75942;BME280;64622;46.220;19.878;2023-01-08T09:47:58;100762.37;;;7.03;96.19
75942;BME280;64622;46.220;19.878;2023-01-08T09:50:28;100759.16;;;6.66;97.16
75942;BME280;64622;46.220;19.878;2023-01-08T09:52:56;100754.34;;;7.13;95.75
75942;BME280;64622;46.220;19.878;2023-01-08T09:55:23;100746.66;;;7.31;95.26
75942;BME280;64622;46.220;19.878;2023-01-08T09:57:52;100738.63;;;7.42;95.17
75942;BME280;64622;46.220;19.878;2023-01-08T10:00:23;100733.28;;;7.42;94.65
75942;BME280;64622;46.220;19.878;2023-01-08T10:02:52;100747.50;;;7.63;92.11
75942;BME280;64622;46.220;19.878;2023-01-08T10:05:19;100741.81;;;7.77;92.21
75942;BME280;64622;46.220;19.878;2023-01-08T10:07:46;100732.13;;;7.76;92.98
75942;BME280;64622;46.220;19.878;2023-01-08T10:10:28;100728.50;;;7.97;91.71
75942;BME280;64622;46.220;19.878;2023-01-08T10:12:56;100732.91;;;8.38;89.56
75942;BME280;64622;46.220;19.878;2023-01-08T10:15:24;100732.94;;;8.18;89.75
75942;BME280;64622;46.220;19.878;2023-01-08T10:18:11;100731.19;;;8.28;89.34
75942;BME280;64622;46.220;19.878;2023-01-08T10:20:39;100721.97;;;7.61;92.65
75942;BME280;64622;46.220;19.878;2023-01-08T10:23:14;100732.41;;;7.53;93.82
75942;BME280;64622;46.220;19.878;2023-01-08T10:28:28;100723.34;;;8.26;88.79
75942;BME280;64622;46.220;19.878;2023-01-08T10:31:07;100714.53;;;8.84;87.66
75942;BME280;64622;46.220;19.878;2023-01-08T10:33:40;100709.28;;;8.64;86.67
75942;BME280;64622;46.220;19.878;2023-01-08T10:36:10;100705.06;;;8.61;87.12
75942;BME280;64622;46.220;19.878;2023-01-08T10:38:47;100709.94;;;9.15;84.92
75942;BME280;64622;46.220;19.878;2023-01-08T10:41:16;100710.28;;;8.72;86.43
75942;BME280;64622;46.220;19.878;2023-01-08T10:43:55;100713.12;;;8.41;87.88
75942;BME280;64622;46.220;19.878;2023-01-08T10:46:45;100702.66;;;8.58;87.31
75942;BME280;64622;46.220;19.878;2023-01-08T10:49:17;100703.19;;;8.13;89.59
75942;BME280;64622;46.220;19.878;2023-01-08T10:51:51;100706.22;;;8.29;89.37
75942;BME280;64622;46.220;19.878;2023-01-08T10:54:30;100701.44;;;8.02;90.75
75942;BME280;64622;46.220;19.878;2023-01-08T10:56:58;100690.69;;;8.43;89.82
75942;BME280;64622;46.220;19.878;2023-01-08T10:59:25;100685.56;;;8.21;91.27
75942;BME280;64622;46.220;19.878;2023-01-08T11:01:53;100688.53;;;8.07;91.53
75942;BME280;64622;46.220;19.878;2023-01-08T11:04:33;100686.97;;;7.95;92.27
75942;BME280;64622;46.220;19.878;2023-01-08T11:07:02;100674.53;;;8.05;91.89
75942;BME280;64622;46.220;19.878;2023-01-08T11:09:32;100673.22;;;7.99;92.93
75942;BME280;64622;46.220;19.878;2023-01-08T11:12:00;100683.63;;;8.02;92.13
75942;BME280;64622;46.220;19.878;2023-01-08T11:14:33;100666.28;;;8.18;92.12
75942;BME280;64622;46.220;19.878;2023-01-08T11:17:07;100677.50;;;8.42;91.50
75942;BME280;64622;46.220;19.878;2023-01-08T11:19:35;100660.66;;;8.41;91.05
75942;BME280;64622;46.220;19.878;2023-01-08T11:22:04;100640.75;;;8.55;90.12
75942;BME280;64622;46.220;19.878;2023-01-08T11:24:35;100641.19;;;9.07;87.51
75942;BME280;64622;46.220;19.878;2023-01-08T11:27:15;100641.16;;;9.55;86.15
75942;BME280;64622;46.220;19.878;2023-01-08T11:35:25;100637.53;;;9.92;83.21
75942;BME280;64622;46.220;19.878;2023-01-08T11:37:58;100637.78;;;9.53;85.37
75942;BME280;64622;46.220;19.878;2023-01-08T11:48:36;100612.97;;;10.43;82.16
75942;BME280;64622;46.220;19.878;2023-01-08T11:57:15;100606.03;;;10.67;80.27
75942;BME280;64622;46.220;19.878;2023-01-08T12:02:34;100605.03;;;10.24;83.32
75942;BME280;64622;46.220;19.878;2023-01-08T12:07:58;100587.53;;;10.74;81.84
75942;BME280;64622;46.220;19.878;2023-01-08T12:10:37;100591.91;;;11.35;79.56
75942;BME280;64622;46.220;19.878;2023-01-08T12:13:23;100588.94;;;11.21;80.15
75942;BME280;64622;46.220;19.878;2023-01-08T12:21:29;100575.47;;;11.30;80.26
75942;BME280;64622;46.220;19.878;2023-01-08T12:32:27;100558.41;;;11.39;80.38
75942;BME280;64622;46.220;19.878;2023-01-08T12:37:47;100572.78;;;11.30;80.98
75942;BME280;64622;46.220;19.878;2023-01-08T12:40:32;100567.84;;;11.18;81.60
75942;BME280;64622;46.220;19.878;2023-01-08T12:43:07;100553.88;;;11.14;81.11
75942;BME280;64622;46.220;19.878;2023-01-08T12:45:44;100563.66;;;11.23;80.94
75942;BME280;64622;46.220;19.878;2023-01-08T12:48:15;100563.19;;;11.45;79.69
75942;BME280;64622;46.220;19.878;2023-01-08T12:53:41;100558.28;;;11.41;79.02
75942;BME280;64622;46.220;19.878;2023-01-08T13:01:58;100530.22;;;11.53;78.09
75942;BME280;64622;46.220;19.878;2023-01-08T13:04:22;100538.34;;;11.43;78.35
75942;BME280;64622;46.220;19.878;2023-01-08T13:09:25;100539.59;;;11.57;78.01
75942;BME280;64622;46.220;19.878;2023-01-08T13:11:54;100533.72;;;11.53;77.66
75942;BME280;64622;46.220;19.878;2023-01-08T13:14:22;100527.53;;;11.53;78.13
75942;BME280;64622;46.220;19.878;2023-01-08T13:17:01;100534.69;;;11.70;77.85
75942;BME280;64622;46.220;19.878;2023-01-08T13:19:33;100527.84;;;11.75;77.34
75942;BME280;64622;46.220;19.878;2023-01-08T13:22:02;100528.72;;;11.58;78.06
75942;BME280;64622;46.220;19.878;2023-01-08T13:24:33;100534.50;;;11.46;77.47
75942;BME280;64622;46.220;19.878;2023-01-08T13:29:50;100533.03;;;11.26;77.96
75942;BME280;64622;46.220;19.878;2023-01-08T13:32:38;100531.53;;;11.23;78.04
75942;BME280;64622;46.220;19.878;2023-01-08T13:35:20;100542.25;;;11.23;77.92
75942;BME280;64622;46.220;19.878;2023-01-08T13:38:03;100535.25;;;11.05;78.54
75942;BME280;64622;46.220;19.878;2023-01-08T13:43:23;100533.22;;;10.81;79.78
75942;BME280;64622;46.220;19.878;2023-01-08T13:48:28;100526.19;;;11.06;79.18
75942;BME280;64622;46.220;19.878;2023-01-08T13:50:56;100512.88;;;11.14;78.88
75942;BME280;64622;46.220;19.878;2023-01-08T13:53:22;100528.37;;;11.02;79.37
75942;BME280;64622;46.220;19.878;2023-01-08T13:55:56;100518.72;;;10.92;79.81
75942;BME280;64622;46.220;19.878;2023-01-08T13:59:03;100529.28;;;10.93;79.77
75942;BME280;64622;46.220;19.878;2023-01-08T14:01:22;100528.91;;;10.88;79.89
75942;BME280;64622;46.220;19.878;2023-01-08T14:03:49;100526.38;;;10.87;79.55
75942;BME280;64622;46.220;19.878;2023-01-08T14:06:16;100527.50;;;10.76;79.80
75942;BME280;64622;46.220;19.878;2023-01-08T14:08:58;100518.56;;;10.68;80.27